Terminal Aerodrome Forecast
Issued by NWS Cleveland, OH

Home | Current Version | Previous Version | Text Only | Print | Product List | Glossary On
Versions: 1 2 3 4 5 6 7 8 9 10 11 12 13 14 15 16 17 18 19 20 21 22 23 24 25 26
361
FTUS41 KCLE 211418 AAB
TAFCLE
TAF AMD
KCLE 211418Z 2114/2218 19005KT 6SM BR OVC008
     FM211800 19005KT 3SM BR OVC006
     FM220200 19006KT 3SM BR OVC003
     FM220800 18007KT 2SM -DZ BR OVC003
     FM221100 18007KT 4SM -RA BR OVC006
     FM221500 18010KT 6SM BR OVC025=

USA.gov is the U.S. government's official web portal to all federal, state and local government web resources and services.